sensor_id;sensor_type;location;lat;lon;timestamp;temperature;humidity
19389;DHT22;9830;41.876;23.474;2023-08-12T00:01:11;16.20;99.90
19389;DHT22;9830;41.876;23.474;2023-08-12T00:03:36;16.20;99.90
19389;DHT22;9830;41.876;23.474;2023-08-12T00:06:02;16.20;99.90
19389;DHT22;9830;41.876;23.474;2023-08-12T00:08:31;16.20;99.90
19389;DHT22;9830;41.876;23.474;2023-08-12T00:10:56;16.20;99.90
19389;DHT22;9830;41.876;23.474;2023-08-12T00:13:22;16.10;99.90
19389;DHT22;9830;41.876;23.474;2023-08-12T00:15:48;16.10;99.90
19389;DHT22;9830;41.876;23.474;2023-08-12T00:18:13;16.10;99.90
19389;DHT22;9830;41.876;23.474;2023-08-12T00:20:41;16.10;99.90
19389;DHT22;9830;41.876;23.474;2023-08-12T00:23:08;16.10;99.90
19389;DHT22;9830;41.876;23.474;2023-08-12T00:25:34;16.00;99.90
19389;DHT22;9830;41.876;23.474;2023-08-12T00:27:59;16.00;99.90
19389;DHT22;9830;41.876;23.474;2023-08-12T00:30:25;16.00;99.90
19389;DHT22;9830;41.876;23.474;2023-08-12T00:32:51;16.00;99.90
19389;DHT22;9830;41.876;23.474;2023-08-12T00:35:16;16.00;99.90
19389;DHT22;9830;41.876;23.474;2023-08-12T00:37:42;16.00;99.90
19389;DHT22;9830;41.876;23.474;2023-08-12T00:40:08;16.00;99.90
19389;DHT22;9830;41.876;23.474;2023-08-12T00:42:34;16.10;99.90
19389;DHT22;9830;41.876;23.474;2023-08-12T00:45:00;15.90;99.90
19389;DHT22;9830;41.876;23.474;2023-08-12T00:47:27;15.80;99.90
19389;DHT22;9830;41.876;23.474;2023-08-12T00:49:53;15.70;99.90
19389;DHT22;9830;41.876;23.474;2023-08-12T00:52:20;15.80;99.90
19389;DHT22;9830;41.876;23.474;2023-08-12T00:54:46;15.70;99.90
19389;DHT22;9830;41.876;23.474;2023-08-12T00:57:12;15.70;99.90
19389;DHT22;9830;41.876;23.474;2023-08-12T00:59:39;15.80;99.90
19389;DHT22;9830;41.876;23.474;2023-08-12T01:02:07;15.80;99.90
19389;DHT22;9830;41.876;23.474;2023-08-12T01:04:34;15.80;99.90
19389;DHT22;9830;41.876;23.474;2023-08-12T01:06:59;15.80;99.90
19389;DHT22;9830;41.876;23.474;2023-08-12T01:09:25;15.80;99.90
19389;DHT22;9830;41.876;23.474;2023-08-12T01:14:23;15.80;99.90
19389;DHT22;9830;41.876;23.474;2023-08-12T01:17:03;15.80;99.90
19389;DHT22;9830;41.876;23.474;2023-08-12T01:19:37;15.80;99.90
19389;DHT22;9830;41.876;23.474;2023-08-12T01:22:04;15.80;99.90
19389;DHT22;9830;41.876;23.474;2023-08-12T01:24:43;15.80;99.90
19389;DHT22;9830;41.876;23.474;2023-08-12T01:27:10;15.70;99.90
19389;DHT22;9830;41.876;23.474;2023-08-12T01:29:39;15.70;99.90
19389;DHT22;9830;41.876;23.474;2023-08-12T01:34:52;15.60;99.90
19389;DHT22;9830;41.876;23.474;2023-08-12T01:37:25;15.60;99.90
19389;DHT22;9830;41.876;23.474;2023-08-12T01:39:53;15.60;99.90
19389;DHT22;9830;41.876;23.474;2023-08-12T01:42:20;15.60;99.90
19389;DHT22;9830;41.876;23.474;2023-08-12T01:44:46;15.70;99.90
19389;DHT22;9830;41.876;23.474;2023-08-12T01:47:14;15.70;99.90
19389;DHT22;9830;41.876;23.474;2023-08-12T01:49:40;15.70;99.90
19389;DHT22;9830;41.876;23.474;2023-08-12T01:52:05;15.70;99.90
19389;DHT22;9830;41.876;23.474;2023-08-12T01:54:31;15.50;99.90
19389;DHT22;9830;41.876;23.474;2023-08-12T01:57:03;15.40;99.90
19389;DHT22;9830;41.876;23.474;2023-08-12T01:59:31;15.40;99.90
19389;DHT22;9830;41.876;23.474;2023-08-12T02:01:57;15.50;99.90
19389;DHT22;9830;41.876;23.474;2023-08-12T02:04:23;15.50;99.90
19389;DHT22;9830;41.876;23.474;2023-08-12T02:06:48;15.50;99.90
19389;DHT22;9830;41.876;23.474;2023-08-12T02:09:15;15.40;99.90
19389;DHT22;9830;41.876;23.474;2023-08-12T02:11:41;15.40;99.90
19389;DHT22;9830;41.876;23.474;2023-08-12T02:14:06;15.30;99.90
19389;DHT22;9830;41.876;23.474;2023-08-12T02:16:32;15.20;99.90
19389;DHT22;9830;41.876;23.474;2023-08-12T02:18:58;15.20;99.90
19389;DHT22;9830;41.876;23.474;2023-08-12T02:21:23;15.20;99.90
19389;DHT22;9830;41.876;23.474;2023-08-12T02:23:49;15.20;99.90
19389;DHT22;9830;41.876;23.474;2023-08-12T02:26:15;15.30;99.90
19389;DHT22;9830;41.876;23.474;2023-08-12T02:28:41;15.20;99.90
19389;DHT22;9830;41.876;23.474;2023-08-12T02:31:07;15.20;99.90
19389;DHT22;9830;41.876;23.474;2023-08-12T02:33:32;15.20;99.90
19389;DHT22;9830;41.876;23.474;2023-08-12T02:35:58;15.20;99.90
19389;DHT22;9830;41.876;23.474;2023-08-12T02:38:24;15.20;99.90
19389;DHT22;9830;41.876;23.474;2023-08-12T02:40:50;15.20;99.90
19389;DHT22;9830;41.876;23.474;2023-08-12T02:43:16;15.30;99.90
19389;DHT22;9830;41.876;23.474;2023-08-12T02:45:42;15.30;99.90
19389;DHT22;9830;41.876;23.474;2023-08-12T02:48:10;15.30;99.90
19389;DHT22;9830;41.876;23.474;2023-08-12T02:50:35;15.30;99.90
19389;DHT22;9830;41.876;23.474;2023-08-12T02:53:02;15.30;99.90
19389;DHT22;9830;41.876;23.474;2023-08-12T02:55:28;15.30;99.90
19389;DHT22;9830;41.876;23.474;2023-08-12T02:57:54;15.20;99.90
19389;DHT22;9830;41.876;23.474;2023-08-12T03:00:20;15.20;99.90
19389;DHT22;9830;41.876;23.474;2023-08-12T03:02:45;15.20;99.90
19389;DHT22;9830;41.876;23.474;2023-08-12T03:05:11;15.20;99.90
19389;DHT22;9830;41.876;23.474;2023-08-12T03:07:37;15.30;99.90
19389;DHT22;9830;41.876;23.474;2023-08-12T03:10:02;15.30;99.90
19389;DHT22;9830;41.876;23.474;2023-08-12T03:12:28;15.30;99.90
19389;DHT22;9830;41.876;23.474;2023-08-12T03:14:54;15.30;99.90
19389;DHT22;9830;41.876;23.474;2023-08-12T03:17:19;15.20;99.90
19389;DHT22;9830;41.876;23.474;2023-08-12T03:19:45;15.20;99.90
19389;DHT22;9830;41.876;23.474;2023-08-12T03:22:11;15.10;99.90
19389;DHT22;9830;41.876;23.474;2023-08-12T03:24:37;14.90;99.90
19389;DHT22;9830;41.876;23.474;2023-08-12T03:27:02;14.90;99.90
19389;DHT22;9830;41.876;23.474;2023-08-12T03:29:28;14.90;99.90
19389;DHT22;9830;41.876;23.474;2023-08-12T03:31:54;14.90;99.90
19389;DHT22;9830;41.876;23.474;2023-08-12T03:34:19;14.90;99.90
19389;DHT22;9830;41.876;23.474;2023-08-12T03:36:45;14.90;99.90
19389;DHT22;9830;41.876;23.474;2023-08-12T03:39:13;14.80;99.90
19389;DHT22;9830;41.876;23.474;2023-08-12T03:41:39;14.90;99.90
19389;DHT22;9830;41.876;23.474;2023-08-12T03:44:05;15.00;99.90
19389;DHT22;9830;41.876;23.474;2023-08-12T03:46:31;15.00;99.90
19389;DHT22;9830;41.876;23.474;2023-08-12T03:48:57;15.00;99.90
19389;DHT22;9830;41.876;23.474;2023-08-12T03:51:22;15.10;99.90
19389;DHT22;9830;41.876;23.474;2023-08-12T03:53:48;15.10;99.90
19389;DHT22;9830;41.876;23.474;2023-08-12T03:56:14;15.20;99.90
19389;DHT22;9830;41.876;23.474;2023-08-12T03:58:42;15.30;99.90
19389;DHT22;9830;41.876;23.474;2023-08-12T04:01:08;15.30;99.90
19389;DHT22;9830;41.876;23.474;2023-08-12T04:03:33;15.40;99.90
19389;DHT22;9830;41.876;23.474;2023-08-12T04:05:59;15.50;99.90
19389;DHT22;9830;41.876;23.474;2023-08-12T04:08:25;15.50;99.90
19389;DHT22;9830;41.876;23.474;2023-08-12T04:10:51;15.50;99.90
19389;DHT22;9830;41.876;23.474;2023-08-12T04:13:17;15.60;99.90
19389;DHT22;9830;41.876;23.474;2023-08-12T04:15:42;15.80;99.90
19389;DHT22;9830;41.876;23.474;2023-08-12T04:18:08;15.90;99.90
19389;DHT22;9830;41.876;23.474;2023-08-12T04:20:34;15.90;99.90
19389;DHT22;9830;41.876;23.474;2023-08-12T04:23:00;16.10;99.90
19389;DHT22;9830;41.876;23.474;2023-08-12T04:25:25;16.20;99.90
19389;DHT22;9830;41.876;23.474;2023-08-12T04:27:51;16.20;99.90
19389;DHT22;9830;41.876;23.474;2023-08-12T04:30:17;16.30;99.90
19389;DHT22;9830;41.876;23.474;2023-08-12T04:32:43;16.40;99.90
19389;DHT22;9830;41.876;23.474;2023-08-12T04:35:09;16.50;99.90
19389;DHT22;9830;41.876;23.474;2023-08-12T04:37:36;16.60;99.90
19389;DHT22;9830;41.876;23.474;2023-08-12T04:40:02;16.80;99.90
19389;DHT22;9830;41.876;23.474;2023-08-12T04:42:30;17.10;99.90
19389;DHT22;9830;41.876;23.474;2023-08-12T04:44:56;17.40;99.90
19389;DHT22;9830;41.876;23.474;2023-08-12T04:47:21;17.50;99.90
19389;DHT22;9830;41.876;23.474;2023-08-12T04:49:47;17.70;99.90
19389;DHT22;9830;41.876;23.474;2023-08-12T04:52:13;18.10;99.90
19389;DHT22;9830;41.876;23.474;2023-08-12T04:54:39;18.30;99.90
19389;DHT22;9830;41.876;23.474;2023-08-12T04:57:06;18.50;99.90
19389;DHT22;9830;41.876;23.474;2023-08-12T04:59:31;18.80;99.90
19389;DHT22;9830;41.876;23.474;2023-08-12T05:01:57;19.20;99.90
19389;DHT22;9830;41.876;23.474;2023-08-12T05:04:23;19.50;99.90
19389;DHT22;9830;41.876;23.474;2023-08-12T05:06:48;20.80;99.90
19389;DHT22;9830;41.876;23.474;2023-08-12T05:09:14;21.90;99.90
19389;DHT22;9830;41.876;23.474;2023-08-12T05:11:40;23.60;99.90
19389;DHT22;9830;41.876;23.474;2023-08-12T05:14:05;25.70;94.00
19389;DHT22;9830;41.876;23.474;2023-08-12T05:16:31;26.80;87.20
19389;DHT22;9830;41.876;23.474;2023-08-12T05:18:57;26.80;82.60
19389;DHT22;9830;41.876;23.474;2023-08-12T05:21:23;25.60;87.00
19389;DHT22;9830;41.876;23.474;2023-08-12T05:23:48;24.50;93.80
19389;DHT22;9830;41.876;23.474;2023-08-12T05:26:14;23.90;96.60
19389;DHT22;9830;41.876;23.474;2023-08-12T05:28:40;23.20;98.50
19389;DHT22;9830;41.876;23.474;2023-08-12T05:31:07;22.70;99.90
19389;DHT22;9830;41.876;23.474;2023-08-12T05:33:33;22.20;99.90
19389;DHT22;9830;41.876;23.474;2023-08-12T05:35:58;22.10;99.90
19389;DHT22;9830;41.876;23.474;2023-08-12T05:38:24;22.00;99.90
19389;DHT22;9830;41.876;23.474;2023-08-12T05:40:50;22.10;99.90
19389;DHT22;9830;41.876;23.474;2023-08-12T05:43:15;23.50;99.30
19389;DHT22;9830;41.876;23.474;2023-08-12T05:45:41;25.90;87.80
19389;DHT22;9830;41.876;23.474;2023-08-12T05:48:07;26.80;75.20
19389;DHT22;9830;41.876;23.474;2023-08-12T05:50:33;27.00;71.50
19389;DHT22;9830;41.876;23.474;2023-08-12T05:52:59;26.90;69.50
19389;DHT22;9830;41.876;23.474;2023-08-12T05:55:26;26.80;69.90
19389;DHT22;9830;41.876;23.474;2023-08-12T05:57:51;27.10;70.20
19389;DHT22;9830;41.876;23.474;2023-08-12T06:00:17;29.00;60.00
19389;DHT22;9830;41.876;23.474;2023-08-12T06:02:43;30.90;51.30
19389;DHT22;9830;41.876;23.474;2023-08-12T06:05:09;30.70;50.90
19389;DHT22;9830;41.876;23.474;2023-08-12T06:07:34;31.60;46.00
19389;DHT22;9830;41.876;23.474;2023-08-12T06:10:00;31.10;46.90
19389;DHT22;9830;41.876;23.474;2023-08-12T06:12:26;31.10;47.80
19389;DHT22;9830;41.876;23.474;2023-08-12T06:14:52;31.70;46.60
19389;DHT22;9830;41.876;23.474;2023-08-12T06:17:18;29.60;48.60
19389;DHT22;9830;41.876;23.474;2023-08-12T06:19:43;28.40;53.40
19389;DHT22;9830;41.876;23.474;2023-08-12T06:22:09;28.00;55.60
19389;DHT22;9830;41.876;23.474;2023-08-12T06:24:35;27.20;59.00
19389;DHT22;9830;41.876;23.474;2023-08-12T06:27:01;27.50;59.50
19389;DHT22;9830;41.876;23.474;2023-08-12T06:29:26;29.50;52.90
19389;DHT22;9830;41.876;23.474;2023-08-12T06:31:52;31.20;46.70
19389;DHT22;9830;41.876;23.474;2023-08-12T06:34:18;31.20;45.00
19389;DHT22;9830;41.876;23.474;2023-08-12T06:36:44;32.60;43.60
19389;DHT22;9830;41.876;23.474;2023-08-12T06:39:09;32.00;43.40
19389;DHT22;9830;41.876;23.474;2023-08-12T06:41:35;33.30;42.10
19389;DHT22;9830;41.876;23.474;2023-08-12T06:44:01;34.90;39.80
19389;DHT22;9830;41.876;23.474;2023-08-12T06:46:26;35.40;39.00
19389;DHT22;9830;41.876;23.474;2023-08-12T06:48:53;34.70;38.80
19389;DHT22;9830;41.876;23.474;2023-08-12T06:51:19;34.90;38.40
19389;DHT22;9830;41.876;23.474;2023-08-12T06:53:45;34.10;38.70
19389;DHT22;9830;41.876;23.474;2023-08-12T06:56:10;33.80;40.70
19389;DHT22;9830;41.876;23.474;2023-08-12T06:58:36;33.60;38.60
19389;DHT22;9830;41.876;23.474;2023-08-12T07:01:02;34.60;36.70
19389;DHT22;9830;41.876;23.474;2023-08-12T07:03:27;34.90;34.80
19389;DHT22;9830;41.876;23.474;2023-08-12T07:05:54;36.10;33.60
19389;DHT22;9830;41.876;23.474;2023-08-12T07:08:20;37.60;31.20
19389;DHT22;9830;41.876;23.474;2023-08-12T07:10:46;37.20;30.20
19389;DHT22;9830;41.876;23.474;2023-08-12T07:13:11;37.20;31.20
19389;DHT22;9830;41.876;23.474;2023-08-12T07:15:37;36.30;32.50
19389;DHT22;9830;41.876;23.474;2023-08-12T07:18:03;37.60;31.10
19389;DHT22;9830;41.876;23.474;2023-08-12T07:20:29;37.90;30.40
19389;DHT22;9830;41.876;23.474;2023-08-12T07:22:54;38.00;30.00
19389;DHT22;9830;41.876;23.474;2023-08-12T07:25:21;39.40;29.30
19389;DHT22;9830;41.876;23.474;2023-08-12T07:27:48;40.10;28.50
19389;DHT22;9830;41.876;23.474;2023-08-12T07:30:14;38.60;29.30
19389;DHT22;9830;41.876;23.474;2023-08-12T07:32:39;40.00;28.50
19389;DHT22;9830;41.876;23.474;2023-08-12T07:35:05;38.90;28.30
19389;DHT22;9830;41.876;23.474;2023-08-12T07:37:31;38.50;29.60
19389;DHT22;9830;41.876;23.474;2023-08-12T07:39:57;37.60;29.70
19389;DHT22;9830;41.876;23.474;2023-08-12T07:42:23;39.50;28.30
19389;DHT22;9830;41.876;23.474;2023-08-12T07:44:49;39.90;28.10
19389;DHT22;9830;41.876;23.474;2023-08-12T07:47:15;39.60;27.80
19389;DHT22;9830;41.876;23.474;2023-08-12T07:49:42;39.60;27.90
19389;DHT22;9830;41.876;23.474;2023-08-12T07:52:07;39.90;27.40
19389;DHT22;9830;41.876;23.474;2023-08-12T07:54:33;38.30;28.30
19389;DHT22;9830;41.876;23.474;2023-08-12T07:56:59;38.00;28.50
19389;DHT22;9830;41.876;23.474;2023-08-12T07:59:25;38.70;27.50
19389;DHT22;9830;41.876;23.474;2023-08-12T08:01:51;39.30;26.90
19389;DHT22;9830;41.876;23.474;2023-08-12T08:04:17;39.10;27.30
19389;DHT22;9830;41.876;23.474;2023-08-12T08:06:44;38.70;28.70
19389;DHT22;9830;41.876;23.474;2023-08-12T08:09:11;39.20;28.70
19389;DHT22;9830;41.876;23.474;2023-08-12T08:11:37;38.20;28.20
19389;DHT22;9830;41.876;23.474;2023-08-12T08:14:02;39.30;27.60
19389;DHT22;9830;41.876;23.474;2023-08-12T08:16:28;40.50;26.60
19389;DHT22;9830;41.876;23.474;2023-08-12T08:18:54;40.60;26.20
19389;DHT22;9830;41.876;23.474;2023-08-12T08:21:20;40.20;27.30
19389;DHT22;9830;41.876;23.474;2023-08-12T08:23:46;41.60;25.10
19389;DHT22;9830;41.876;23.474;2023-08-12T08:26:12;40.40;25.20
19389;DHT22;9830;41.876;23.474;2023-08-12T08:28:38;40.60;25.80
19389;DHT22;9830;41.876;23.474;2023-08-12T08:31:04;41.50;25.50
19389;DHT22;9830;41.876;23.474;2023-08-12T08:33:30;41.10;25.00
19389;DHT22;9830;41.876;23.474;2023-08-12T08:35:56;40.90;25.80
19389;DHT22;9830;41.876;23.474;2023-08-12T08:38:22;40.60;26.30
19389;DHT22;9830;41.876;23.474;2023-08-12T08:40:49;41.20;25.30
19389;DHT22;9830;41.876;23.474;2023-08-12T08:43:21;41.40;25.60
19389;DHT22;9830;41.876;23.474;2023-08-12T08:45:52;40.70;25.10
19389;DHT22;9830;41.876;23.474;2023-08-12T08:48:19;41.60;25.20
19389;DHT22;9830;41.876;23.474;2023-08-12T08:50:46;40.40;25.50
19389;DHT22;9830;41.876;23.474;2023-08-12T08:53:13;39.10;25.60
19389;DHT22;9830;41.876;23.474;2023-08-12T08:55:41;39.10;26.40
19389;DHT22;9830;41.876;23.474;2023-08-12T08:58:07;40.60;25.50
19389;DHT22;9830;41.876;23.474;2023-08-12T09:00:32;40.70;25.30
19389;DHT22;9830;41.876;23.474;2023-08-12T09:02:59;38.90;26.50
19389;DHT22;9830;41.876;23.474;2023-08-12T09:05:26;38.60;26.90
19389;DHT22;9830;41.876;23.474;2023-08-12T09:07:54;38.30;27.70
19389;DHT22;9830;41.876;23.474;2023-08-12T09:10:21;38.90;27.60
19389;DHT22;9830;41.876;23.474;2023-08-12T09:12:47;39.60;27.80
19389;DHT22;9830;41.876;23.474;2023-08-12T09:15:13;40.30;26.70
19389;DHT22;9830;41.876;23.474;2023-08-12T09:17:39;40.50;25.90
19389;DHT22;9830;41.876;23.474;2023-08-12T09:20:05;39.50;26.30
19389;DHT22;9830;41.876;23.474;2023-08-12T09:22:37;40.10;26.50
19389;DHT22;9830;41.876;23.474;2023-08-12T09:25:03;38.50;27.10
19389;DHT22;9830;41.876;23.474;2023-08-12T09:27:32;36.90;28.40
19389;DHT22;9830;41.876;23.474;2023-08-12T09:29:58;33.50;31.80
19389;DHT22;9830;41.876;23.474;2023-08-12T09:32:24;33.60;32.40
19389;DHT22;9830;41.876;23.474;2023-08-12T09:34:52;33.50;32.40
19389;DHT22;9830;41.876;23.474;2023-08-12T09:37:20;33.40;33.00
19389;DHT22;9830;41.876;23.474;2023-08-12T09:39:47;32.80;33.30
19389;DHT22;9830;41.876;23.474;2023-08-12T09:42:14;33.30;33.10
19389;DHT22;9830;41.876;23.474;2023-08-12T09:44:40;33.90;31.30
19389;DHT22;9830;41.876;23.474;2023-08-12T09:47:07;33.80;31.20
19389;DHT22;9830;41.876;23.474;2023-08-12T09:49:37;33.40;31.80
19389;DHT22;9830;41.876;23.474;2023-08-12T09:52:08;32.70;33.40
19389;DHT22;9830;41.876;23.474;2023-08-12T09:54:34;32.70;33.40
19389;DHT22;9830;41.876;23.474;2023-08-12T09:57:02;31.30;35.80
19389;DHT22;9830;41.876;23.474;2023-08-12T09:59:34;31.00;36.20
19389;DHT22;9830;41.876;23.474;2023-08-12T10:02:01;30.90;35.50
19389;DHT22;9830;41.876;23.474;2023-08-12T10:04:44;30.90;35.30
19389;DHT22;9830;41.876;23.474;2023-08-12T10:07:11;30.90;36.60
19389;DHT22;9830;41.876;23.474;2023-08-12T10:09:39;30.90;34.80
19389;DHT22;9830;41.876;23.474;2023-08-12T10:12:06;30.50;36.40
19389;DHT22;9830;41.876;23.474;2023-08-12T10:14:33;30.50;36.80
19389;DHT22;9830;41.876;23.474;2023-08-12T10:16:59;30.90;34.90
19389;DHT22;9830;41.876;23.474;2023-08-12T10:19:25;31.90;35.10
19389;DHT22;9830;41.876;23.474;2023-08-12T10:21:55;33.30;33.70
19389;DHT22;9830;41.876;23.474;2023-08-12T10:24:23;33.90;32.30
19389;DHT22;9830;41.876;23.474;2023-08-12T10:26:51;33.50;31.60
19389;DHT22;9830;41.876;23.474;2023-08-12T10:29:19;32.20;34.90
19389;DHT22;9830;41.876;23.474;2023-08-12T10:31:48;31.80;34.40
19389;DHT22;9830;41.876;23.474;2023-08-12T10:34:21;30.80;37.00
19389;DHT22;9830;41.876;23.474;2023-08-12T10:36:48;30.60;37.40
19389;DHT22;9830;41.876;23.474;2023-08-12T10:39:14;30.00;37.50
19389;DHT22;9830;41.876;23.474;2023-08-12T10:41:50;30.20;37.70
19389;DHT22;9830;41.876;23.474;2023-08-12T10:44:16;30.50;37.80
19389;DHT22;9830;41.876;23.474;2023-08-12T10:46:50;30.50;37.50
19389;DHT22;9830;41.876;23.474;2023-08-12T10:49:19;30.80;36.20
19389;DHT22;9830;41.876;23.474;2023-08-12T10:51:52;31.20;35.00
19389;DHT22;9830;41.876;23.474;2023-08-12T10:54:23;31.50;35.20
19389;DHT22;9830;41.876;23.474;2023-08-12T10:57:10;32.00;34.20
19389;DHT22;9830;41.876;23.474;2023-08-12T11:02:31;31.90;32.70
19389;DHT22;9830;41.876;23.474;2023-08-12T11:05:08;31.80;34.30
19389;DHT22;9830;41.876;23.474;2023-08-12T11:10:18;31.90;34.00
19389;DHT22;9830;41.876;23.474;2023-08-12T11:13:02;31.80;34.00
19389;DHT22;9830;41.876;23.474;2023-08-12T11:18:06;33.00;32.60
19389;DHT22;9830;41.876;23.474;2023-08-12T11:20:32;32.90;31.80
19389;DHT22;9830;41.876;23.474;2023-08-12T11:22:59;32.30;33.40
19389;DHT22;9830;41.876;23.474;2023-08-12T11:25:27;31.90;32.60
19389;DHT22;9830;41.876;23.474;2023-08-12T11:27:53;30.50;34.30
19389;DHT22;9830;41.876;23.474;2023-08-12T11:30:20;30.20;36.90
19389;DHT22;9830;41.876;23.474;2023-08-12T11:32:48;30.10;35.40
19389;DHT22;9830;41.876;23.474;2023-08-12T11:35:15;30.10;37.20
19389;DHT22;9830;41.876;23.474;2023-08-12T11:37:44;30.20;36.30
19389;DHT22;9830;41.876;23.474;2023-08-12T11:40:10;29.70;36.70
19389;DHT22;9830;41.876;23.474;2023-08-12T11:42:38;29.60;38.30
19389;DHT22;9830;41.876;23.474;2023-08-12T11:45:05;29.60;37.80
19389;DHT22;9830;41.876;23.474;2023-08-12T11:47:31;29.90;36.90
19389;DHT22;9830;41.876;23.474;2023-08-12T11:49:57;30.10;37.20
19389;DHT22;9830;41.876;23.474;2023-08-12T11:52:23;30.60;35.90
19389;DHT22;9830;41.876;23.474;2023-08-12T11:54:49;30.30;35.60
19389;DHT22;9830;41.876;23.474;2023-08-12T11:57:16;30.70;37.30
19389;DHT22;9830;41.876;23.474;2023-08-12T11:59:42;31.10;37.30
19389;DHT22;9830;41.876;23.474;2023-08-12T12:02:08;32.20;35.50
19389;DHT22;9830;41.876;23.474;2023-08-12T12:04:35;32.10;34.30
19389;DHT22;9830;41.876;23.474;2023-08-12T12:07:01;31.70;33.60
19389;DHT22;9830;41.876;23.474;2023-08-12T12:09:32;31.20;34.60
19389;DHT22;9830;41.876;23.474;2023-08-12T12:11:58;30.80;36.00
19389;DHT22;9830;41.876;23.474;2023-08-12T12:14:24;30.60;34.80
19389;DHT22;9830;41.876;23.474;2023-08-12T12:16:51;30.50;35.40
19389;DHT22;9830;41.876;23.474;2023-08-12T12:19:21;30.30;35.10
19389;DHT22;9830;41.876;23.474;2023-08-12T12:21:51;30.10;36.50
19389;DHT22;9830;41.876;23.474;2023-08-12T12:24:18;30.00;34.50
19389;DHT22;9830;41.876;23.474;2023-08-12T12:26:45;29.70;35.40
19389;DHT22;9830;41.876;23.474;2023-08-12T12:29:13;29.50;37.30
19389;DHT22;9830;41.876;23.474;2023-08-12T12:31:40;29.40;42.90
19389;DHT22;9830;41.876;23.474;2023-08-12T12:34:07;29.50;43.20
19389;DHT22;9830;41.876;23.474;2023-08-12T12:36:35;29.30;43.70
19389;DHT22;9830;41.876;23.474;2023-08-12T12:39:03;29.30;44.30
19389;DHT22;9830;41.876;23.474;2023-08-12T12:41:29;29.10;45.10
19389;DHT22;9830;41.876;23.474;2023-08-12T12:43:55;29.00;45.80
19389;DHT22;9830;41.876;23.474;2023-08-12T12:46:21;29.00;46.40
19389;DHT22;9830;41.876;23.474;2023-08-12T12:48:46;28.90;48.60
19389;DHT22;9830;41.876;23.474;2023-08-12T12:51:13;28.70;50.20
19389;DHT22;9830;41.876;23.474;2023-08-12T12:53:39;28.60;50.80
19389;DHT22;9830;41.876;23.474;2023-08-12T12:56:05;28.40;51.20
19389;DHT22;9830;41.876;23.474;2023-08-12T12:58:35;28.00;50.00
19389;DHT22;9830;41.876;23.474;2023-08-12T13:01:04;27.80;53.50
19389;DHT22;9830;41.876;23.474;2023-08-12T13:03:33;27.80;52.20
19389;DHT22;9830;41.876;23.474;2023-08-12T13:05:59;27.80;52.20
19389;DHT22;9830;41.876;23.474;2023-08-12T13:08:25;27.60;53.20
19389;DHT22;9830;41.876;23.474;2023-08-12T13:10:51;27.40;54.20
19389;DHT22;9830;41.876;23.474;2023-08-12T13:13:17;27.20;56.50
19389;DHT22;9830;41.876;23.474;2023-08-12T13:15:44;27.00;57.50
19389;DHT22;9830;41.876;23.474;2023-08-12T13:18:11;26.70;60.30
19389;DHT22;9830;41.876;23.474;2023-08-12T13:20:37;26.60;62.80
19389;DHT22;9830;41.876;23.474;2023-08-12T13:23:04;26.40;64.90
19389;DHT22;9830;41.876;23.474;2023-08-12T13:25:33;26.60;64.70
19389;DHT22;9830;41.876;23.474;2023-08-12T13:28:00;26.90;60.30
19389;DHT22;9830;41.876;23.474;2023-08-12T13:30:27;27.20;60.90
19389;DHT22;9830;41.876;23.474;2023-08-12T13:32:53;27.10;59.60
19389;DHT22;9830;41.876;23.474;2023-08-12T13:35:19;27.10;59.40
19389;DHT22;9830;41.876;23.474;2023-08-12T13:37:45;27.10;60.80
19389;DHT22;9830;41.876;23.474;2023-08-12T13:40:11;27.30;60.20
19389;DHT22;9830;41.876;23.474;2023-08-12T13:42:41;27.50;61.80
19389;DHT22;9830;41.876;23.474;2023-08-12T13:45:07;27.70;59.40
19389;DHT22;9830;41.876;23.474;2023-08-12T13:47:37;27.70;55.90
19389;DHT22;9830;41.876;23.474;2023-08-12T13:50:05;28.00;54.70
19389;DHT22;9830;41.876;23.474;2023-08-12T13:52:31;28.30;52.10
19389;DHT22;9830;41.876;23.474;2023-08-12T13:54:57;28.80;50.30
19389;DHT22;9830;41.876;23.474;2023-08-12T13:57:23;29.60;48.10
19389;DHT22;9830;41.876;23.474;2023-08-12T13:59:49;29.70;40.70
19389;DHT22;9830;41.876;23.474;2023-08-12T14:02:15;29.90;41.40
19389;DHT22;9830;41.876;23.474;2023-08-12T14:04:41;29.50;43.80
19389;DHT22;9830;41.876;23.474;2023-08-12T14:07:07;29.50;45.10
19389;DHT22;9830;41.876;23.474;2023-08-12T14:09:33;29.20;45.10
19389;DHT22;9830;41.876;23.474;2023-08-12T14:11:59;29.00;44.80
19389;DHT22;9830;41.876;23.474;2023-08-12T14:14:26;28.90;45.40
19389;DHT22;9830;41.876;23.474;2023-08-12T14:16:55;29.00;47.60
19389;DHT22;9830;41.876;23.474;2023-08-12T14:19:20;29.10;47.50
19389;DHT22;9830;41.876;23.474;2023-08-12T14:21:46;29.20;48.80
19389;DHT22;9830;41.876;23.474;2023-08-12T14:24:13;29.00;49.40
19389;DHT22;9830;41.876;23.474;2023-08-12T14:26:39;29.10;50.20
19389;DHT22;9830;41.876;23.474;2023-08-12T14:29:06;29.00;49.60
19389;DHT22;9830;41.876;23.474;2023-08-12T14:31:32;28.80;49.40
19389;DHT22;9830;41.876;23.474;2023-08-12T14:33:58;28.80;46.90
19389;DHT22;9830;41.876;23.474;2023-08-12T14:36:24;28.70;48.20
19389;DHT22;9830;41.876;23.474;2023-08-12T14:38:52;28.80;49.10
19389;DHT22;9830;41.876;23.474;2023-08-12T14:41:18;28.90;48.10
19389;DHT22;9830;41.876;23.474;2023-08-12T14:43:44;28.80;48.10
19389;DHT22;9830;41.876;23.474;2023-08-12T14:46:09;28.40;47.00
19389;DHT22;9830;41.876;23.474;2023-08-12T14:48:35;28.30;43.30
19389;DHT22;9830;41.876;23.474;2023-08-12T14:51:01;28.30;43.20
19389;DHT22;9830;41.876;23.474;2023-08-12T14:53:27;27.60;46.00
19389;DHT22;9830;41.876;23.474;2023-08-12T14:55:54;27.50;47.50
19389;DHT22;9830;41.876;23.474;2023-08-12T14:58:20;27.30;48.70
19389;DHT22;9830;41.876;23.474;2023-08-12T15:00:49;27.50;45.90
19389;DHT22;9830;41.876;23.474;2023-08-12T15:03:15;27.50;46.50
19389;DHT22;9830;41.876;23.474;2023-08-12T15:05:41;27.50;50.20
19389;DHT22;9830;41.876;23.474;2023-08-12T15:08:07;27.60;50.70
19389;DHT22;9830;41.876;23.474;2023-08-12T15:10:33;27.50;49.70
19389;DHT22;9830;41.876;23.474;2023-08-12T15:12:59;27.40;48.80
19389;DHT22;9830;41.876;23.474;2023-08-12T15:15:24;27.30;51.70
19389;DHT22;9830;41.876;23.474;2023-08-12T15:17:50;27.30;52.30
19389;DHT22;9830;41.876;23.474;2023-08-12T15:20:17;27.30;54.00
19389;DHT22;9830;41.876;23.474;2023-08-12T15:22:43;27.10;53.80
19389;DHT22;9830;41.876;23.474;2023-08-12T15:25:09;27.00;54.70
19389;DHT22;9830;41.876;23.474;2023-08-12T15:27:34;27.00;58.00
19389;DHT22;9830;41.876;23.474;2023-08-12T15:30:00;27.00;62.20
19389;DHT22;9830;41.876;23.474;2023-08-12T15:32:26;26.90;63.40
19389;DHT22;9830;41.876;23.474;2023-08-12T15:34:53;27.00;60.00
19389;DHT22;9830;41.876;23.474;2023-08-12T15:37:19;26.90;58.30
19389;DHT22;9830;41.876;23.474;2023-08-12T15:39:45;26.90;55.80